sensor_id;sensor_type;location;lat;lon;timestamp;temperature;humidity
11454;DHT22;5783;55.174;61.310;2023-10-13T00:01:24;25.60;28.70
11454;DHT22;5783;55.174;61.310;2023-10-13T00:03:53;25.70;28.30
11454;DHT22;5783;55.174;61.310;2023-10-13T00:06:21;25.70;28.50
11454;DHT22;5783;55.174;61.310;2023-10-13T00:08:50;25.70;28.40
11454;DHT22;5783;55.174;61.310;2023-10-13T00:11:18;25.70;28.50
11454;DHT22;5783;55.174;61.310;2023-10-13T00:13:48;25.70;28.40
11454;DHT22;5783;55.174;61.310;2023-10-13T00:16:17;25.80;28.00
11454;DHT22;5783;55.174;61.310;2023-10-13T00:19:06;25.70;28.20
11454;DHT22;5783;55.174;61.310;2023-10-13T00:21:37;25.80;28.30
11454;DHT22;5783;55.174;61.310;2023-10-13T00:24:06;25.80;28.10
11454;DHT22;5783;55.174;61.310;2023-10-13T00:26:37;25.80;28.10
11454;DHT22;5783;55.174;61.310;2023-10-13T00:29:07;25.70;28.20
11454;DHT22;5783;55.174;61.310;2023-10-13T00:31:55;25.70;28.10
11454;DHT22;5783;55.174;61.310;2023-10-13T00:34:24;25.70;28.10
11454;DHT22;5783;55.174;61.310;2023-10-13T00:36:54;25.70;28.20
11454;DHT22;5783;55.174;61.310;2023-10-13T00:39:42;25.70;28.30
11454;DHT22;5783;55.174;61.310;2023-10-13T00:42:13;25.70;28.40
11454;DHT22;5783;55.174;61.310;2023-10-13T00:45:02;25.60;28.40
11454;DHT22;5783;55.174;61.310;2023-10-13T00:47:32;25.60;28.80
11454;DHT22;5783;55.174;61.310;2023-10-13T00:50:21;25.70;28.70
11454;DHT22;5783;55.174;61.310;2023-10-13T00:52:50;25.70;28.60
11454;DHT22;5783;55.174;61.310;2023-10-13T00:55:19;25.70;28.80
11454;DHT22;5783;55.174;61.310;2023-10-13T01:00:21;25.80;28.90
11454;DHT22;5783;55.174;61.310;2023-10-13T01:03:09;25.80;28.80
11454;DHT22;5783;55.174;61.310;2023-10-13T01:05:40;25.70;28.50
11454;DHT22;5783;55.174;61.310;2023-10-13T01:08:10;25.70;28.60
11454;DHT22;5783;55.174;61.310;2023-10-13T01:10:42;25.70;28.80
11454;DHT22;5783;55.174;61.310;2023-10-13T01:13:10;25.70;28.90
11454;DHT22;5783;55.174;61.310;2023-10-13T01:15:39;25.80;28.70
11454;DHT22;5783;55.174;61.310;2023-10-13T01:18:28;25.70;28.60
11454;DHT22;5783;55.174;61.310;2023-10-13T01:20:56;25.70;28.60
11454;DHT22;5783;55.174;61.310;2023-10-13T01:23:27;25.70;28.00
11454;DHT22;5783;55.174;61.310;2023-10-13T01:25:58;25.70;28.60
11454;DHT22;5783;55.174;61.310;2023-10-13T01:28:28;25.70;28.80
11454;DHT22;5783;55.174;61.310;2023-10-13T01:30:59;25.70;28.80
11454;DHT22;5783;55.174;61.310;2023-10-13T01:33:28;25.70;28.90
11454;DHT22;5783;55.174;61.310;2023-10-13T01:35:59;25.70;28.80
11454;DHT22;5783;55.174;61.310;2023-10-13T01:38:30;25.70;28.60
11454;DHT22;5783;55.174;61.310;2023-10-13T01:41:00;25.80;28.90
11454;DHT22;5783;55.174;61.310;2023-10-13T01:43:30;25.80;28.70
11454;DHT22;5783;55.174;61.310;2023-10-13T01:45:59;25.80;28.90
11454;DHT22;5783;55.174;61.310;2023-10-13T01:48:29;25.80;28.80
11454;DHT22;5783;55.174;61.310;2023-10-13T01:51:17;25.80;28.90
11454;DHT22;5783;55.174;61.310;2023-10-13T01:53:47;25.80;28.90
11454;DHT22;5783;55.174;61.310;2023-10-13T01:56:17;25.80;29.00
11454;DHT22;5783;55.174;61.310;2023-10-13T01:58:48;25.80;29.00
11454;DHT22;5783;55.174;61.310;2023-10-13T02:01:18;25.80;29.10
11454;DHT22;5783;55.174;61.310;2023-10-13T02:04:07;25.80;29.20
11454;DHT22;5783;55.174;61.310;2023-10-13T02:06:37;25.80;28.90
11454;DHT22;5783;55.174;61.310;2023-10-13T02:09:08;25.80;29.10
11454;DHT22;5783;55.174;61.310;2023-10-13T02:11:39;25.80;29.00
11454;DHT22;5783;55.174;61.310;2023-10-13T02:14:08;25.90;29.10
11454;DHT22;5783;55.174;61.310;2023-10-13T02:16:37;25.90;29.10
11454;DHT22;5783;55.174;61.310;2023-10-13T02:19:07;26.00;28.90
11454;DHT22;5783;55.174;61.310;2023-10-13T02:21:38;25.90;29.00
11454;DHT22;5783;55.174;61.310;2023-10-13T02:24:08;26.00;29.10
11454;DHT22;5783;55.174;61.310;2023-10-13T02:26:38;25.90;28.90
11454;DHT22;5783;55.174;61.310;2023-10-13T02:29:06;25.90;28.80
11454;DHT22;5783;55.174;61.310;2023-10-13T02:31:38;26.00;29.10
11454;DHT22;5783;55.174;61.310;2023-10-13T02:34:07;26.00;28.80
11454;DHT22;5783;55.174;61.310;2023-10-13T02:36:37;26.10;29.00
11454;DHT22;5783;55.174;61.310;2023-10-13T02:39:25;26.10;28.80
11454;DHT22;5783;55.174;61.310;2023-10-13T02:41:54;26.10;28.70
11454;DHT22;5783;55.174;61.310;2023-10-13T02:44:22;26.10;28.80
11454;DHT22;5783;55.174;61.310;2023-10-13T02:49:41;26.20;28.80
11454;DHT22;5783;55.174;61.310;2023-10-13T02:52:11;26.30;28.70
11454;DHT22;5783;55.174;61.310;2023-10-13T02:54:40;26.30;28.60
11454;DHT22;5783;55.174;61.310;2023-10-13T02:57:10;26.30;28.40
11454;DHT22;5783;55.174;61.310;2023-10-13T02:59:38;26.20;28.40
11454;DHT22;5783;55.174;61.310;2023-10-13T03:04:56;26.20;28.70
11454;DHT22;5783;55.174;61.310;2023-10-13T03:07:26;26.20;28.60
11454;DHT22;5783;55.174;61.310;2023-10-13T03:09:55;26.30;28.60
11454;DHT22;5783;55.174;61.310;2023-10-13T03:12:26;26.30;28.70
11454;DHT22;5783;55.174;61.310;2023-10-13T03:15:14;26.30;28.60
11454;DHT22;5783;55.174;61.310;2023-10-13T03:18:02;26.30;28.90
11454;DHT22;5783;55.174;61.310;2023-10-13T03:20:30;26.30;28.40
11454;DHT22;5783;55.174;61.310;2023-10-13T03:22:59;26.30;28.50
11454;DHT22;5783;55.174;61.310;2023-10-13T03:25:30;26.20;28.30
11454;DHT22;5783;55.174;61.310;2023-10-13T03:28:00;26.30;28.50
11454;DHT22;5783;55.174;61.310;2023-10-13T03:30:29;26.30;28.40
11454;DHT22;5783;55.174;61.310;2023-10-13T03:33:17;26.30;28.40
11454;DHT22;5783;55.174;61.310;2023-10-13T03:36:05;26.40;28.30
11454;DHT22;5783;55.174;61.310;2023-10-13T03:38:33;26.40;28.30
11454;DHT22;5783;55.174;61.310;2023-10-13T03:41:02;26.30;28.30
11454;DHT22;5783;55.174;61.310;2023-10-13T03:43:50;26.30;28.50
11454;DHT22;5783;55.174;61.310;2023-10-13T03:46:20;26.30;28.60
11454;DHT22;5783;55.174;61.310;2023-10-13T03:48:48;26.30;28.40
11454;DHT22;5783;55.174;61.310;2023-10-13T03:51:35;26.40;28.30
11454;DHT22;5783;55.174;61.310;2023-10-13T03:54:04;26.40;28.40
11454;DHT22;5783;55.174;61.310;2023-10-13T03:56:52;26.40;28.30
11454;DHT22;5783;55.174;61.310;2023-10-13T03:59:22;26.40;28.30
11454;DHT22;5783;55.174;61.310;2023-10-13T04:01:50;26.40;28.20
11454;DHT22;5783;55.174;61.310;2023-10-13T04:04:20;26.40;28.20
11454;DHT22;5783;55.174;61.310;2023-10-13T04:07:08;26.40;28.20
11454;DHT22;5783;55.174;61.310;2023-10-13T04:09:38;26.50;28.30
11454;DHT22;5783;55.174;61.310;2023-10-13T04:12:26;26.50;28.30
11454;DHT22;5783;55.174;61.310;2023-10-13T04:15:14;26.60;28.20
11454;DHT22;5783;55.174;61.310;2023-10-13T04:17:44;26.60;28.20
11454;DHT22;5783;55.174;61.310;2023-10-13T04:20:14;26.70;28.30
11454;DHT22;5783;55.174;61.310;2023-10-13T04:22:44;26.70;28.40
11454;DHT22;5783;55.174;61.310;2023-10-13T04:25:14;26.70;28.20
11454;DHT22;5783;55.174;61.310;2023-10-13T04:28:02;26.70;28.40
11454;DHT22;5783;55.174;61.310;2023-10-13T04:30:51;26.70;28.50
11454;DHT22;5783;55.174;61.310;2023-10-13T04:33:39;26.60;28.30
11454;DHT22;5783;55.174;61.310;2023-10-13T04:36:26;26.60;28.30
11454;DHT22;5783;55.174;61.310;2023-10-13T04:38:59;26.60;28.30
11454;DHT22;5783;55.174;61.310;2023-10-13T04:41:27;26.60;28.50
11454;DHT22;5783;55.174;61.310;2023-10-13T04:43:58;26.60;28.30
11454;DHT22;5783;55.174;61.310;2023-10-13T04:46:45;26.60;28.20
11454;DHT22;5783;55.174;61.310;2023-10-13T04:49:15;26.60;29.10
11454;DHT22;5783;55.174;61.310;2023-10-13T04:52:04;26.70;29.20
11454;DHT22;5783;55.174;61.310;2023-10-13T04:54:52;26.60;29.10
11454;DHT22;5783;55.174;61.310;2023-10-13T04:57:21;26.50;29.30
11454;DHT22;5783;55.174;61.310;2023-10-13T04:59:52;26.50;29.30
11454;DHT22;5783;55.174;61.310;2023-10-13T05:02:41;26.60;29.40
11454;DHT22;5783;55.174;61.310;2023-10-13T05:08:19;26.60;29.30
11454;DHT22;5783;55.174;61.310;2023-10-13T05:11:07;26.60;27.00
11454;DHT22;5783;55.174;61.310;2023-10-13T05:13:54;26.40;26.90
11454;DHT22;5783;55.174;61.310;2023-10-13T05:16:44;26.30;26.70
11454;DHT22;5783;55.174;61.310;2023-10-13T05:19:32;26.00;26.40
11454;DHT22;5783;55.174;61.310;2023-10-13T05:22:21;25.60;26.40
11454;DHT22;5783;55.174;61.310;2023-10-13T05:25:10;25.40;26.70
11454;DHT22;5783;55.174;61.310;2023-10-13T05:27:58;25.20;26.70
11454;DHT22;5783;55.174;61.310;2023-10-13T05:30:47;25.00;26.80
11454;DHT22;5783;55.174;61.310;2023-10-13T05:33:36;24.90;27.10
11454;DHT22;5783;55.174;61.310;2023-10-13T05:36:24;24.70;27.10
11454;DHT22;5783;55.174;61.310;2023-10-13T05:39:13;24.40;26.90
11454;DHT22;5783;55.174;61.310;2023-10-13T05:42:02;24.20;27.10
11454;DHT22;5783;55.174;61.310;2023-10-13T05:44:50;24.10;27.20
11454;DHT22;5783;55.174;61.310;2023-10-13T05:47:39;24.00;27.40
11454;DHT22;5783;55.174;61.310;2023-10-13T05:50:28;24.00;27.50
11454;DHT22;5783;55.174;61.310;2023-10-13T05:52:59;23.90;27.20
11454;DHT22;5783;55.174;61.310;2023-10-13T05:55:31;23.70;27.20
11454;DHT22;5783;55.174;61.310;2023-10-13T05:58:19;23.70;27.40
11454;DHT22;5783;55.174;61.310;2023-10-13T06:01:11;23.60;27.30
11454;DHT22;5783;55.174;61.310;2023-10-13T06:04:00;23.60;27.50
11454;DHT22;5783;55.174;61.310;2023-10-13T06:06:48;23.60;27.70
11454;DHT22;5783;55.174;61.310;2023-10-13T06:09:37;23.60;27.50
11454;DHT22;5783;55.174;61.310;2023-10-13T06:12:26;23.50;27.40
11454;DHT22;5783;55.174;61.310;2023-10-13T06:15:14;23.50;27.50
11454;DHT22;5783;55.174;61.310;2023-10-13T06:18:03;23.40;27.40
11454;DHT22;5783;55.174;61.310;2023-10-13T06:20:52;23.40;27.50
11454;DHT22;5783;55.174;61.310;2023-10-13T06:23:41;23.40;27.20
11454;DHT22;5783;55.174;61.310;2023-10-13T06:26:29;23.20;27.20
11454;DHT22;5783;55.174;61.310;2023-10-13T06:29:18;23.20;27.50
11454;DHT22;5783;55.174;61.310;2023-10-13T06:31:48;23.20;27.30
11454;DHT22;5783;55.174;61.310;2023-10-13T06:34:17;23.30;27.50
11454;DHT22;5783;55.174;61.310;2023-10-13T06:36:47;23.40;27.30
11454;DHT22;5783;55.174;61.310;2023-10-13T06:39:18;23.30;27.20
11454;DHT22;5783;55.174;61.310;2023-10-13T06:42:07;23.30;27.20
11454;DHT22;5783;55.174;61.310;2023-10-13T06:44:36;23.30;27.40
11454;DHT22;5783;55.174;61.310;2023-10-13T06:47:06;23.30;27.50
11454;DHT22;5783;55.174;61.310;2023-10-13T06:49:35;23.30;27.80
11454;DHT22;5783;55.174;61.310;2023-10-13T06:52:06;23.40;27.50
11454;DHT22;5783;55.174;61.310;2023-10-13T06:54:36;23.40;27.70
11454;DHT22;5783;55.174;61.310;2023-10-13T06:57:07;23.30;27.70
11454;DHT22;5783;55.174;61.310;2023-10-13T06:59:56;23.30;27.90
11454;DHT22;5783;55.174;61.310;2023-10-13T07:02:25;23.30;27.90
11454;DHT22;5783;55.174;61.310;2023-10-13T07:04:56;23.30;28.00
11454;DHT22;5783;55.174;61.310;2023-10-13T07:07:26;23.30;28.00
11454;DHT22;5783;55.174;61.310;2023-10-13T07:09:57;23.40;28.00
11454;DHT22;5783;55.174;61.310;2023-10-13T07:12:26;23.40;27.60
11454;DHT22;5783;55.174;61.310;2023-10-13T07:14:57;23.30;27.90
11454;DHT22;5783;55.174;61.310;2023-10-13T07:17:28;23.30;27.80
11454;DHT22;5783;55.174;61.310;2023-10-13T07:19:58;23.30;28.00
11454;DHT22;5783;55.174;61.310;2023-10-13T07:22:29;23.30;28.00
11454;DHT22;5783;55.174;61.310;2023-10-13T07:25:00;23.20;27.80
11454;DHT22;5783;55.174;61.310;2023-10-13T07:27:32;23.30;28.00
11454;DHT22;5783;55.174;61.310;2023-10-13T07:30:02;23.30;27.80
11454;DHT22;5783;55.174;61.310;2023-10-13T07:32:34;23.40;28.00
11454;DHT22;5783;55.174;61.310;2023-10-13T07:35:03;23.40;28.10
11454;DHT22;5783;55.174;61.310;2023-10-13T07:37:34;23.40;28.10
11454;DHT22;5783;55.174;61.310;2023-10-13T07:40:06;23.40;28.00
11454;DHT22;5783;55.174;61.310;2023-10-13T07:42:37;23.50;27.80
11454;DHT22;5783;55.174;61.310;2023-10-13T07:45:07;23.50;27.80
11454;DHT22;5783;55.174;61.310;2023-10-13T07:47:37;23.60;27.70
11454;DHT22;5783;55.174;61.310;2023-10-13T07:50:07;23.50;27.40
11454;DHT22;5783;55.174;61.310;2023-10-13T07:52:36;23.50;27.50
11454;DHT22;5783;55.174;61.310;2023-10-13T07:55:07;23.60;27.70
11454;DHT22;5783;55.174;61.310;2023-10-13T07:57:56;23.60;27.70
11454;DHT22;5783;55.174;61.310;2023-10-13T08:00:27;23.60;27.70
11454;DHT22;5783;55.174;61.310;2023-10-13T08:02:58;23.60;27.80
11454;DHT22;5783;55.174;61.310;2023-10-13T08:05:29;23.60;28.00
11454;DHT22;5783;55.174;61.310;2023-10-13T08:08:00;23.60;28.10
11454;DHT22;5783;55.174;61.310;2023-10-13T08:13:23;23.60;27.90
11454;DHT22;5783;55.174;61.310;2023-10-13T08:15:53;23.70;27.90
11454;DHT22;5783;55.174;61.310;2023-10-13T08:18:24;23.70;27.90
11454;DHT22;5783;55.174;61.310;2023-10-13T08:21:12;23.60;28.10
11454;DHT22;5783;55.174;61.310;2023-10-13T08:23:43;23.50;28.10
11454;DHT22;5783;55.174;61.310;2023-10-13T08:26:32;23.50;28.20
11454;DHT22;5783;55.174;61.310;2023-10-13T08:29:20;23.40;28.40
11454;DHT22;5783;55.174;61.310;2023-10-13T08:31:52;23.40;28.50
11454;DHT22;5783;55.174;61.310;2023-10-13T08:34:41;23.40;28.50
11454;DHT22;5783;55.174;61.310;2023-10-13T08:37:13;23.40;28.50
11454;DHT22;5783;55.174;61.310;2023-10-13T08:40:02;23.50;28.60
11454;DHT22;5783;55.174;61.310;2023-10-13T08:42:36;23.50;28.50
11454;DHT22;5783;55.174;61.310;2023-10-13T08:48:00;23.70;28.10
11454;DHT22;5783;55.174;61.310;2023-10-13T08:50:50;23.50;28.60
11454;DHT22;5783;55.174;61.310;2023-10-13T08:53:24;23.60;28.60
11454;DHT22;5783;55.174;61.310;2023-10-13T08:56:13;23.70;28.80
11454;DHT22;5783;55.174;61.310;2023-10-13T09:01:36;23.60;28.80
11454;DHT22;5783;55.174;61.310;2023-10-13T09:04:25;23.70;28.90
11454;DHT22;5783;55.174;61.310;2023-10-13T09:10:07;23.70;29.10
11454;DHT22;5783;55.174;61.310;2023-10-13T09:12:56;23.70;29.20
11454;DHT22;5783;55.174;61.310;2023-10-13T09:15:44;23.70;29.40
11454;DHT22;5783;55.174;61.310;2023-10-13T09:18:33;23.70;29.50
11454;DHT22;5783;55.174;61.310;2023-10-13T09:21:22;23.70;29.60
11454;DHT22;5783;55.174;61.310;2023-10-13T09:27:01;23.90;29.80
11454;DHT22;5783;55.174;61.310;2023-10-13T09:29:31;23.80;29.80
11454;DHT22;5783;55.174;61.310;2023-10-13T09:32:03;23.80;30.00
11454;DHT22;5783;55.174;61.310;2023-10-13T09:34:34;23.80;30.00
11454;DHT22;5783;55.174;61.310;2023-10-13T09:37:05;23.90;30.10
11454;DHT22;5783;55.174;61.310;2023-10-13T09:39:36;23.90;30.20
11454;DHT22;5783;55.174;61.310;2023-10-13T09:42:26;23.90;30.30
11454;DHT22;5783;55.174;61.310;2023-10-13T09:44:55;23.90;30.60
11454;DHT22;5783;55.174;61.310;2023-10-13T09:47:28;23.90;30.60
11454;DHT22;5783;55.174;61.310;2023-10-13T09:50:00;23.90;30.70
11454;DHT22;5783;55.174;61.310;2023-10-13T09:52:32;24.00;30.90
11454;DHT22;5783;55.174;61.310;2023-10-13T09:55:58;23.90;30.80
11454;DHT22;5783;55.174;61.310;2023-10-13T10:01:06;24.10;31.20
11454;DHT22;5783;55.174;61.310;2023-10-13T10:03:55;24.00;31.50
11454;DHT22;5783;55.174;61.310;2023-10-13T10:07:05;24.10;31.20
11454;DHT22;5783;55.174;61.310;2023-10-13T10:09:35;24.20;31.40
11454;DHT22;5783;55.174;61.310;2023-10-13T10:18:17;23.80;31.80
11454;DHT22;5783;55.174;61.310;2023-10-13T10:20:38;23.50;31.80
11454;DHT22;5783;55.174;61.310;2023-10-13T10:23:28;23.40;32.20
11454;DHT22;5783;55.174;61.310;2023-10-13T10:28:51;23.30;32.50
11454;DHT22;5783;55.174;61.310;2023-10-13T10:31:30;23.30;32.30
11454;DHT22;5783;55.174;61.310;2023-10-13T10:33:53;23.20;32.50
11454;DHT22;5783;55.174;61.310;2023-10-13T10:39:13;23.30;32.10
11454;DHT22;5783;55.174;61.310;2023-10-13T10:41:44;23.30;31.70
11454;DHT22;5783;55.174;61.310;2023-10-13T10:44:15;23.20;31.70
11454;DHT22;5783;55.174;61.310;2023-10-13T10:47:24;23.20;31.90
11454;DHT22;5783;55.174;61.310;2023-10-13T10:50:13;23.00;31.90
11454;DHT22;5783;55.174;61.310;2023-10-13T10:56:29;23.10;32.60
11454;DHT22;5783;55.174;61.310;2023-10-13T10:59:18;23.00;31.80
11454;DHT22;5783;55.174;61.310;2023-10-13T11:01:49;23.00;32.20
11454;DHT22;5783;55.174;61.310;2023-10-13T11:04:19;23.10;31.80
11454;DHT22;5783;55.174;61.310;2023-10-13T11:07:08;23.20;31.70
11454;DHT22;5783;55.174;61.310;2023-10-13T11:09:37;23.30;31.90
11454;DHT22;5783;55.174;61.310;2023-10-13T11:12:26;23.40;31.60
11454;DHT22;5783;55.174;61.310;2023-10-13T11:15:15;23.50;31.50
11454;DHT22;5783;55.174;61.310;2023-10-13T11:18:03;23.40;31.30
11454;DHT22;5783;55.174;61.310;2023-10-13T11:20:41;23.20;31.50
11454;DHT22;5783;55.174;61.310;2023-10-13T11:23:27;23.10;31.70
11454;DHT22;5783;55.174;61.310;2023-10-13T11:25:58;23.10;31.80
11454;DHT22;5783;55.174;61.310;2023-10-13T11:28:27;23.00;31.90
11454;DHT22;5783;55.174;61.310;2023-10-13T11:30:59;23.00;32.00
11454;DHT22;5783;55.174;61.310;2023-10-13T11:33:48;22.90;32.10
11454;DHT22;5783;55.174;61.310;2023-10-13T11:36:19;22.70;32.40
11454;DHT22;5783;55.174;61.310;2023-10-13T11:39:07;22.70;32.40
11454;DHT22;5783;55.174;61.310;2023-10-13T11:41:38;22.80;32.60
11454;DHT22;5783;55.174;61.310;2023-10-13T11:44:09;22.80;32.50
11454;DHT22;5783;55.174;61.310;2023-10-13T11:46:57;22.90;32.60
11454;DHT22;5783;55.174;61.310;2023-10-13T11:49:46;23.00;32.50
11454;DHT22;5783;55.174;61.310;2023-10-13T11:52:15;23.00;32.40
11454;DHT22;5783;55.174;61.310;2023-10-13T11:54:44;22.80;32.10
11454;DHT22;5783;55.174;61.310;2023-10-13T11:57:14;22.70;32.50
11454;DHT22;5783;55.174;61.310;2023-10-13T11:59:45;22.80;32.70
11454;DHT22;5783;55.174;61.310;2023-10-13T12:02:33;22.90;32.40
11454;DHT22;5783;55.174;61.310;2023-10-13T12:05:22;22.80;32.40
11454;DHT22;5783;55.174;61.310;2023-10-13T12:07:53;22.90;32.40
11454;DHT22;5783;55.174;61.310;2023-10-13T12:10:24;23.00;32.10
11454;DHT22;5783;55.174;61.310;2023-10-13T12:13:12;23.10;32.00
11454;DHT22;5783;55.174;61.310;2023-10-13T12:15:43;23.20;31.70
11454;DHT22;5783;55.174;61.310;2023-10-13T12:18:32;23.30;31.50
11454;DHT22;5783;55.174;61.310;2023-10-13T12:23:52;23.40;31.30
11454;DHT22;5783;55.174;61.310;2023-10-13T12:26:22;23.50;31.40
11454;DHT22;5783;55.174;61.310;2023-10-13T12:28:52;23.50;31.10
11454;DHT22;5783;55.174;61.310;2023-10-13T12:31:23;23.50;31.20
11454;DHT22;5783;55.174;61.310;2023-10-13T12:33:54;23.40;31.20
11454;DHT22;5783;55.174;61.310;2023-10-13T12:36:25;23.40;31.50
11454;DHT22;5783;55.174;61.310;2023-10-13T12:38:55;23.40;31.50
11454;DHT22;5783;55.174;61.310;2023-10-13T12:41:44;23.30;31.60
11454;DHT22;5783;55.174;61.310;2023-10-13T12:44:33;23.30;31.60
11454;DHT22;5783;55.174;61.310;2023-10-13T12:47:22;23.20;31.50
11454;DHT22;5783;55.174;61.310;2023-10-13T12:50:11;23.10;31.60
11454;DHT22;5783;55.174;61.310;2023-10-13T12:52:42;23.20;31.80
11454;DHT22;5783;55.174;61.310;2023-10-13T12:55:12;23.10;31.80
11454;DHT22;5783;55.174;61.310;2023-10-13T12:57:42;23.10;31.80
11454;DHT22;5783;55.174;61.310;2023-10-13T13:00:12;23.20;31.80
11454;DHT22;5783;55.174;61.310;2023-10-13T13:03:01;23.20;32.00
11454;DHT22;5783;55.174;61.310;2023-10-13T13:05:31;23.30;31.70
11454;DHT22;5783;55.174;61.310;2023-10-13T13:08:03;23.30;31.70
11454;DHT22;5783;55.174;61.310;2023-10-13T13:10:32;23.30;31.70
11454;DHT22;5783;55.174;61.310;2023-10-13T13:13:20;23.30;31.80
11454;DHT22;5783;55.174;61.310;2023-10-13T13:15:51;23.40;31.80
11454;DHT22;5783;55.174;61.310;2023-10-13T13:18:20;23.40;31.50
11454;DHT22;5783;55.174;61.310;2023-10-13T13:20:49;23.40;31.60
11454;DHT22;5783;55.174;61.310;2023-10-13T13:23:38;23.50;31.60
11454;DHT22;5783;55.174;61.310;2023-10-13T13:26:07;23.40;31.50
11454;DHT22;5783;55.174;61.310;2023-10-13T13:28:38;23.50;31.60
11454;DHT22;5783;55.174;61.310;2023-10-13T13:31:07;23.50;31.60
11454;DHT22;5783;55.174;61.310;2023-10-13T13:33:38;23.60;31.50
11454;DHT22;5783;55.174;61.310;2023-10-13T13:38:59;23.50;31.60
11454;DHT22;5783;55.174;61.310;2023-10-13T13:41:29;23.50;31.60
11454;DHT22;5783;55.174;61.310;2023-10-13T13:43:59;23.50;31.60
11454;DHT22;5783;55.174;61.310;2023-10-13T13:46:30;23.50;31.60
11454;DHT22;5783;55.174;61.310;2023-10-13T13:49:00;23.50;31.70
11454;DHT22;5783;55.174;61.310;2023-10-13T13:51:30;23.40;32.20
11454;DHT22;5783;55.174;61.310;2023-10-13T13:54:00;23.40;32.00
11454;DHT22;5783;55.174;61.310;2023-10-13T13:56:31;23.40;31.80
11454;DHT22;5783;55.174;61.310;2023-10-13T13:59:02;23.30;31.70
11454;DHT22;5783;55.174;61.310;2023-10-13T14:01:33;23.20;32.00
11454;DHT22;5783;55.174;61.310;2023-10-13T14:04:04;23.30;31.80
11454;DHT22;5783;55.174;61.310;2023-10-13T14:06:33;23.30;31.90
11454;DHT22;5783;55.174;61.310;2023-10-13T14:09:05;23.20;31.90
11454;DHT22;5783;55.174;61.310;2023-10-13T14:11:53;23.10;31.90
11454;DHT22;5783;55.174;61.310;2023-10-13T14:14:42;23.10;32.00
11454;DHT22;5783;55.174;61.310;2023-10-13T14:17:13;23.10;32.20
11454;DHT22;5783;55.174;61.310;2023-10-13T14:19:42;23.20;32.00
11454;DHT22;5783;55.174;61.310;2023-10-13T14:22:12;23.30;31.90
11454;DHT22;5783;55.174;61.310;2023-10-13T14:24:41;23.30;31.60
11454;DHT22;5783;55.174;61.310;2023-10-13T14:27:12;23.40;31.50
11454;DHT22;5783;55.174;61.310;2023-10-13T14:30:02;23.30;31.50
11454;DHT22;5783;55.174;61.310;2023-10-13T14:32:33;23.40;31.60
11454;DHT22;5783;55.174;61.310;2023-10-13T14:35:04;23.40;31.50
11454;DHT22;5783;55.174;61.310;2023-10-13T14:37:34;23.30;31.50
11454;DHT22;5783;55.174;61.310;2023-10-13T14:40:04;23.40;31.50
11454;DHT22;5783;55.174;61.310;2023-10-13T14:42:35;23.50;31.40
11454;DHT22;5783;55.174;61.310;2023-10-13T14:45:06;23.60;31.40
11454;DHT22;5783;55.174;61.310;2023-10-13T14:47:37;23.70;31.30
11454;DHT22;5783;55.174;61.310;2023-10-13T14:50:07;23.70;31.10
11454;DHT22;5783;55.174;61.310;2023-10-13T14:52:38;23.70;31.30
11454;DHT22;5783;55.174;61.310;2023-10-13T14:55:09;23.70;31.10
11454;DHT22;5783;55.174;61.310;2023-10-13T14:57:40;23.70;31.40
11454;DHT22;5783;55.174;61.310;2023-10-13T15:00:10;23.70;31.40
11454;DHT22;5783;55.174;61.310;2023-10-13T15:02:41;23.80;31.40
11454;DHT22;5783;55.174;61.310;2023-10-13T15:05:30;24.10;31.10
11454;DHT22;5783;55.174;61.310;2023-10-13T15:08:00;24.40;31.00
11454;DHT22;5783;55.174;61.310;2023-10-13T15:10:30;24.70;30.80
11454;DHT22;5783;55.174;61.310;2023-10-13T15:12:59;24.90;30.60
11454;DHT22;5783;55.174;61.310;2023-10-13T15:15:28;25.10;30.40
11454;DHT22;5783;55.174;61.310;2023-10-13T15:17:59;25.20;30.30
11454;DHT22;5783;55.174;61.310;2023-10-13T15:20:28;25.40;30.20
11454;DHT22;5783;55.174;61.310;2023-10-13T15:22:58;25.60;30.00
11454;DHT22;5783;55.174;61.310;2023-10-13T15:25:27;25.70;29.90
11454;DHT22;5783;55.174;61.310;2023-10-13T15:27:59;25.80;29.90
11454;DHT22;5783;55.174;61.310;2023-10-13T15:30:29;25.90;29.80
11454;DHT22;5783;55.174;61.310;2023-10-13T15:33:01;25.90;29.70
11454;DHT22;5783;55.174;61.310;2023-10-13T15:35:31;26.00;29.80
11454;DHT22;5783;55.174;61.310;2023-10-13T15:38:01;26.10;29.60
11454;DHT22;5783;55.174;61.310;2023-10-13T15:40:30;26.20;29.70
11454;DHT22;5783;55.174;61.310;2023-10-13T15:42:59;26.20;29.50
11454;DHT22;5783;55.174;61.310;2023-10-13T15:45:31;26.30;29.60
11454;DHT22;5783;55.174;61.310;2023-10-13T15:48:02;26.40;29.60
11454;DHT22;5783;55.174;61.310;2023-10-13T15:50:51;26.40;29.70
11454;DHT22;5783;55.174;61.310;2023-10-13T15:53:20;26.40;29.50
11454;DHT22;5783;55.174;61.310;2023-10-13T15:55:51;26.50;29.60
11454;DHT22;5783;55.174;61.310;2023-10-13T15:58:20;26.60;29.60
11454;DHT22;5783;55.174;61.310;2023-10-13T16:00:54;26.60;29.60
11454;DHT22;5783;55.174;61.310;2023-10-13T16:03:24;26.70;29.60
11454;DHT22;5783;55.174;61.310;2023-10-13T16:05:54;26.80;29.50
11454;DHT22;5783;55.174;61.310;2023-10-13T16:08:23;26.80;29.40
11454;DHT22;5783;55.174;61.310;2023-10-13T16:10:52;26.80;29.20
11454;DHT22;5783;55.174;61.310;2023-10-13T16:13:20;26.80;29.30
11454;DHT22;5783;55.174;61.310;2023-10-13T16:15:49;26.80;29.20
11454;DHT22;5783;55.174;61.310;2023-10-13T16:18:18;26.80;29.40
11454;DHT22;5783;55.174;61.310;2023-10-13T16:20:48;26.90;29.30
11454;DHT22;5783;55.174;61.310;2023-10-13T16:23:21;26.90;29.40
11454;DHT22;5783;55.174;61.310;2023-10-13T16:25:50;27.00;29.30
11454;DHT22;5783;55.174;61.310;2023-10-13T16:28:21;27.00;29.20
11454;DHT22;5783;55.174;61.310;2023-10-13T16:33:22;26.90;29.00
11454;DHT22;5783;55.174;61.310;2023-10-13T16:35:51;26.80;28.80
11454;DHT22;5783;55.174;61.310;2023-10-13T16:38:21;26.70;29.20
11454;DHT22;5783;55.174;61.310;2023-10-13T16:41:09;26.70;29.20
11454;DHT22;5783;55.174;61.310;2023-10-13T16:43:41;26.50;29.30
11454;DHT22;5783;55.174;61.310;2023-10-13T16:46:11;26.50;29.50
11454;DHT22;5783;55.174;61.310;2023-10-13T16:48:43;26.50;29.40
11454;DHT22;5783;55.174;61.310;2023-10-13T16:51:13;26.50;29.60
11454;DHT22;5783;55.174;61.310;2023-10-13T16:53:42;26.50;29.70
11454;DHT22;5783;55.174;61.310;2023-10-13T16:56:31;26.50;29.50
11454;DHT22;5783;55.174;61.310;2023-10-13T16:59:01;26.50;29.50
11454;DHT22;5783;55.174;61.310;2023-10-13T17:01:32;26.40;29.40
11454;DHT22;5783;55.174;61.310;2023-10-13T17:04:01;26.40;29.70
11454;DHT22;5783;55.174;61.310;2023-10-13T17:06:30;26.40;29.70
11454;DHT22;5783;55.174;61.310;2023-10-13T17:08:59;26.40;29.70
11454;DHT22;5783;55.174;61.310;2023-10-13T17:11:29;26.50;29.80
11454;DHT22;5783;55.174;61.310;2023-10-13T17:13:57;26.60;29.60